aviador You're here:

LFSB Decoded Metar

MULHOUSE in FRANCE
Report Time2018-06-17 21:30:00
UTC Time2018-06-17 21:51:26
Flight Rules vfr VFR
Wind250° at 05 kt
W.Decomp.*RWY 26: 4.9 kt HW 1 kt LCW
RWY 33: 0.8 kt HW 4.9 kt LCW
W.Rank250° ranks 2
Current wind is below 250° avg. (7.3)
Visibility9999 m
Phenomena:N/A
Clouds:N/A
Expected CloudBase > 1,600 ft AGL from Temp-Dew spread
CeilingNone
Temp17°C (ISA +4)
Dew Point13°C (77% RH)
AAT16.1°C
QNH1022 hPa
Density Alt1,234 ft
Elevation889 ft
Report Wrong Elevation
Raw Report
LFSB 172130Z 25005KT CAVOK 17/13 Q1022 NOSIG=

Extra information for LFSB:More info

Metar Taf Metar & Taf Last 4 Metars F.Rules Stats Wind Profile Meteogram Temp Stats Airport Information Weather charts Add Link Nearby VenuesMetar ALERT Operation Metar Decoded Social comments